Dallas, Texas
Traffic Map
Current Weather Conditions
Dallas, Texas
Overcast
Overcast
23°
Feels Like: 23°
Wind Chill: 23° Ceiling: 2800
Heat Index: 23° Visibility: 10mi
Dew Point: 21° Wind: 10mph
Humidity: 87% Direction: 90° (E)
Pressure: 29.94in Gusts: 0mph
Raw Report DataKDAL 310735Z 09009KT 10SM FEW009 BKN028 OVC040 23/21 A2994 RMK AO2 RAB13E35 TSB13E35 CONS LTGCCCGIC DSNT NW-N-E-SE TS MOVD SE P0000 T02330211
Traffic Incident Summary
Active as of:
Severity:
Category:
InformationThere was an issue retrieving the traffic information for this location. Please try a different location or try again shortly.
Advertisements
Track Severe Weather on mobile